sensor_id;sensor_type;location;lat;lon;timestamp;P1;durP1;ratioP1;P2;durP2;ratioP2
79456;SDS011;69494;43.654;3.884;2024-03-06T00:01:38;2.60;;;0.90;;
79456;SDS011;69494;43.654;3.884;2024-03-06T00:04:04;1.42;;;0.52;;
79456;SDS011;69494;43.654;3.884;2024-03-06T00:06:29;1.25;;;0.57;;
79456;SDS011;69494;43.654;3.884;2024-03-06T00:08:55;2.28;;;0.73;;
79456;SDS011;69494;43.654;3.884;2024-03-06T00:11:21;3.08;;;0.93;;
79456;SDS011;69494;43.654;3.884;2024-03-06T00:13:46;3.15;;;0.80;;
79456;SDS011;69494;43.654;3.884;2024-03-06T00:16:12;4.65;;;1.00;;
79456;SDS011;69494;43.654;3.884;2024-03-06T00:18:38;1.27;;;0.47;;
79456;SDS011;69494;43.654;3.884;2024-03-06T00:21:03;2.55;;;0.82;;
79456;SDS011;69494;43.654;3.884;2024-03-06T00:23:29;2.25;;;0.50;;
79456;SDS011;69494;43.654;3.884;2024-03-06T00:25:55;6.80;;;2.03;;
79456;SDS011;69494;43.654;3.884;2024-03-06T00:28:21;6.38;;;1.50;;
79456;SDS011;69494;43.654;3.884;2024-03-06T00:30:46;4.43;;;0.98;;
79456;SDS011;69494;43.654;3.884;2024-03-06T00:33:12;8.98;;;2.47;;
79456;SDS011;69494;43.654;3.884;2024-03-06T00:35:37;8.00;;;1.80;;
79456;SDS011;69494;43.654;3.884;2024-03-06T00:38:02;4.90;;;1.10;;
79456;SDS011;69494;43.654;3.884;2024-03-06T00:40:28;5.60;;;1.38;;
79456;SDS011;69494;43.654;3.884;2024-03-06T00:42:57;7.80;;;2.10;;
79456;SDS011;69494;43.654;3.884;2024-03-06T00:45:23;2.50;;;0.73;;
79456;SDS011;69494;43.654;3.884;2024-03-06T00:47:48;2.33;;;0.47;;
79456;SDS011;69494;43.654;3.884;2024-03-06T00:50:14;0.98;;;0.38;;
79456;SDS011;69494;43.654;3.884;2024-03-06T00:52:41;0.55;;;0.28;;
79456;SDS011;69494;43.654;3.884;2024-03-06T00:55:07;1.55;;;0.50;;
79456;SDS011;69494;43.654;3.884;2024-03-06T00:57:33;1.45;;;0.68;;
79456;SDS011;69494;43.654;3.884;2024-03-06T00:59:58;2.45;;;0.85;;
79456;SDS011;69494;43.654;3.884;2024-03-06T01:02:24;4.90;;;1.52;;
79456;SDS011;69494;43.654;3.884;2024-03-06T01:04:49;6.38;;;1.65;;
79456;SDS011;69494;43.654;3.884;2024-03-06T01:07:14;8.65;;;2.70;;
79456;SDS011;69494;43.654;3.884;2024-03-06T01:09:40;4.32;;;1.52;;
79456;SDS011;69494;43.654;3.884;2024-03-06T01:12:05;3.22;;;1.02;;
79456;SDS011;69494;43.654;3.884;2024-03-06T01:14:30;1.90;;;0.82;;
79456;SDS011;69494;43.654;3.884;2024-03-06T01:16:56;2.95;;;0.60;;
79456;SDS011;69494;43.654;3.884;2024-03-06T01:19:21;3.60;;;1.00;;
79456;SDS011;69494;43.654;3.884;2024-03-06T01:21:47;4.25;;;0.52;;
79456;SDS011;69494;43.654;3.884;2024-03-06T01:24:13;1.95;;;0.57;;
79456;SDS011;69494;43.654;3.884;2024-03-06T01:26:39;2.42;;;0.50;;
79456;SDS011;69494;43.654;3.884;2024-03-06T01:29:05;0.95;;;0.40;;
79456;SDS011;69494;43.654;3.884;2024-03-06T01:31:31;0.85;;;0.32;;
79456;SDS011;69494;43.654;3.884;2024-03-06T01:33:56;1.45;;;0.35;;
79456;SDS011;69494;43.654;3.884;2024-03-06T01:36:21;1.00;;;0.30;;
79456;SDS011;69494;43.654;3.884;2024-03-06T01:38:47;4.20;;;0.60;;
79456;SDS011;69494;43.654;3.884;2024-03-06T01:41:12;4.00;;;0.60;;
79456;SDS011;69494;43.654;3.884;2024-03-06T01:43:38;0.65;;;0.30;;
79456;SDS011;69494;43.654;3.884;2024-03-06T01:46:04;2.63;;;0.60;;
79456;SDS011;69494;43.654;3.884;2024-03-06T01:48:30;0.82;;;0.30;;
79456;SDS011;69494;43.654;3.884;2024-03-06T01:50:57;1.05;;;0.30;;
79456;SDS011;69494;43.654;3.884;2024-03-06T01:53:25;0.80;;;0.40;;
79456;SDS011;69494;43.654;3.884;2024-03-06T01:55:52;0.45;;;0.30;;
79456;SDS011;69494;43.654;3.884;2024-03-06T01:58:18;0.88;;;0.20;;
79456;SDS011;69494;43.654;3.884;2024-03-06T02:00:46;0.85;;;0.40;;
79456;SDS011;69494;43.654;3.884;2024-03-06T02:05:39;1.23;;;0.45;;
79456;SDS011;69494;43.654;3.884;2024-03-06T02:08:05;0.98;;;0.40;;
79456;SDS011;69494;43.654;3.884;2024-03-06T02:10:31;3.50;;;0.63;;
79456;SDS011;69494;43.654;3.884;2024-03-06T02:12:56;1.33;;;0.45;;
79456;SDS011;69494;43.654;3.884;2024-03-06T02:15:22;1.45;;;0.55;;
79456;SDS011;69494;43.654;3.884;2024-03-06T02:17:48;0.55;;;0.20;;
79456;SDS011;69494;43.654;3.884;2024-03-06T02:20:14;2.03;;;0.50;;
79456;SDS011;69494;43.654;3.884;2024-03-06T02:22:40;2.35;;;0.32;;
79456;SDS011;69494;43.654;3.884;2024-03-06T02:25:06;1.10;;;0.40;;
79456;SDS011;69494;43.654;3.884;2024-03-06T02:27:32;3.78;;;0.50;;
79456;SDS011;69494;43.654;3.884;2024-03-06T02:29:58;0.77;;;0.45;;
79456;SDS011;69494;43.654;3.884;2024-03-06T02:32:23;0.80;;;0.35;;
79456;SDS011;69494;43.654;3.884;2024-03-06T02:34:49;0.80;;;0.32;;
79456;SDS011;69494;43.654;3.884;2024-03-06T02:37:15;0.80;;;0.40;;
79456;SDS011;69494;43.654;3.884;2024-03-06T02:39:41;1.65;;;0.57;;
79456;SDS011;69494;43.654;3.884;2024-03-06T02:42:06;1.55;;;0.73;;
79456;SDS011;69494;43.654;3.884;2024-03-06T02:44:32;2.97;;;0.65;;
79456;SDS011;69494;43.654;3.884;2024-03-06T02:46:58;1.45;;;0.52;;
79456;SDS011;69494;43.654;3.884;2024-03-06T02:49:23;1.73;;;0.77;;
79456;SDS011;69494;43.654;3.884;2024-03-06T02:51:49;1.98;;;0.73;;
79456;SDS011;69494;43.654;3.884;2024-03-06T02:54:14;1.00;;;0.47;;
79456;SDS011;69494;43.654;3.884;2024-03-06T02:56:39;2.47;;;0.70;;
79456;SDS011;69494;43.654;3.884;2024-03-06T02:59:05;1.45;;;0.60;;
79456;SDS011;69494;43.654;3.884;2024-03-06T03:01:30;4.20;;;0.63;;
79456;SDS011;69494;43.654;3.884;2024-03-06T03:03:56;2.60;;;0.70;;
79456;SDS011;69494;43.654;3.884;2024-03-06T03:06:22;2.35;;;0.90;;
79456;SDS011;69494;43.654;3.884;2024-03-06T03:08:51;1.60;;;0.70;;
79456;SDS011;69494;43.654;3.884;2024-03-06T03:11:16;0.93;;;0.45;;
79456;SDS011;69494;43.654;3.884;2024-03-06T03:13:41;3.95;;;1.08;;
79456;SDS011;69494;43.654;3.884;2024-03-06T03:16:07;0.88;;;0.50;;
79456;SDS011;69494;43.654;3.884;2024-03-06T03:18:40;1.15;;;0.55;;
79456;SDS011;69494;43.654;3.884;2024-03-06T03:21:08;1.67;;;0.52;;
79456;SDS011;69494;43.654;3.884;2024-03-06T03:23:35;0.38;;;0.20;;
79456;SDS011;69494;43.654;3.884;2024-03-06T03:28:26;0.45;;;0.20;;
79456;SDS011;69494;43.654;3.884;2024-03-06T03:30:52;1.02;;;0.30;;
79456;SDS011;69494;43.654;3.884;2024-03-06T03:33:17;3.42;;;0.68;;
79456;SDS011;69494;43.654;3.884;2024-03-06T03:35:42;0.17;;;0.15;;
79456;SDS011;69494;43.654;3.884;2024-03-06T03:38:08;0.35;;;0.30;;
79456;SDS011;69494;43.654;3.884;2024-03-06T03:40:33;0.90;;;0.40;;
79456;SDS011;69494;43.654;3.884;2024-03-06T03:42:58;4.95;;;0.50;;
79456;SDS011;69494;43.654;3.884;2024-03-06T03:45:24;1.77;;;0.50;;
79456;SDS011;69494;43.654;3.884;2024-03-06T03:47:49;3.40;;;0.60;;
79456;SDS011;69494;43.654;3.884;2024-03-06T03:50:14;1.60;;;0.35;;
79456;SDS011;69494;43.654;3.884;2024-03-06T03:52:40;3.30;;;0.85;;
79456;SDS011;69494;43.654;3.884;2024-03-06T03:55:07;1.55;;;0.55;;
79456;SDS011;69494;43.654;3.884;2024-03-06T03:57:33;1.30;;;0.40;;
79456;SDS011;69494;43.654;3.884;2024-03-06T03:59:58;1.88;;;0.60;;
79456;SDS011;69494;43.654;3.884;2024-03-06T04:02:24;1.35;;;0.52;;
79456;SDS011;69494;43.654;3.884;2024-03-06T04:04:49;1.25;;;0.77;;
79456;SDS011;69494;43.654;3.884;2024-03-06T04:07:15;1.35;;;0.30;;
79456;SDS011;69494;43.654;3.884;2024-03-06T04:09:41;0.75;;;0.30;;
79456;SDS011;69494;43.654;3.884;2024-03-06T04:12:06;1.77;;;0.70;;
79456;SDS011;69494;43.654;3.884;2024-03-06T04:14:32;0.80;;;0.40;;
79456;SDS011;69494;43.654;3.884;2024-03-06T04:16:57;1.55;;;0.40;;
79456;SDS011;69494;43.654;3.884;2024-03-06T04:19:22;1.45;;;0.60;;
79456;SDS011;69494;43.654;3.884;2024-03-06T04:21:48;1.70;;;0.60;;
79456;SDS011;69494;43.654;3.884;2024-03-06T04:24:13;2.78;;;0.80;;
79456;SDS011;69494;43.654;3.884;2024-03-06T04:26:38;1.48;;;0.52;;
79456;SDS011;69494;43.654;3.884;2024-03-06T04:29:04;0.95;;;0.35;;
79456;SDS011;69494;43.654;3.884;2024-03-06T04:31:29;2.33;;;0.68;;
79456;SDS011;69494;43.654;3.884;2024-03-06T04:33:54;2.20;;;0.63;;
79456;SDS011;69494;43.654;3.884;2024-03-06T04:36:20;0.85;;;0.20;;
79456;SDS011;69494;43.654;3.884;2024-03-06T04:38:45;2.92;;;0.40;;
79456;SDS011;69494;43.654;3.884;2024-03-06T04:41:11;0.77;;;0.40;;
79456;SDS011;69494;43.654;3.884;2024-03-06T04:43:36;0.90;;;0.50;;
79456;SDS011;69494;43.654;3.884;2024-03-06T04:46:01;0.65;;;0.20;;
79456;SDS011;69494;43.654;3.884;2024-03-06T04:48:27;0.65;;;0.32;;
79456;SDS011;69494;43.654;3.884;2024-03-06T04:50:52;4.35;;;0.70;;
79456;SDS011;69494;43.654;3.884;2024-03-06T04:53:18;0.98;;;0.60;;
79456;SDS011;69494;43.654;3.884;2024-03-06T04:55:45;1.33;;;0.40;;
79456;SDS011;69494;43.654;3.884;2024-03-06T04:58:11;0.47;;;0.30;;
79456;SDS011;69494;43.654;3.884;2024-03-06T05:00:37;0.98;;;0.50;;
79456;SDS011;69494;43.654;3.884;2024-03-06T05:03:03;6.88;;;1.52;;
79456;SDS011;69494;43.654;3.884;2024-03-06T05:05:28;8.82;;;3.40;;
79456;SDS011;69494;43.654;3.884;2024-03-06T05:07:54;12.38;;;4.10;;
79456;SDS011;69494;43.654;3.884;2024-03-06T05:10:20;17.45;;;6.57;;
79456;SDS011;69494;43.654;3.884;2024-03-06T05:12:46;11.77;;;5.43;;
79456;SDS011;69494;43.654;3.884;2024-03-06T05:15:11;10.13;;;4.25;;
79456;SDS011;69494;43.654;3.884;2024-03-06T05:17:37;9.80;;;2.58;;
79456;SDS011;69494;43.654;3.884;2024-03-06T05:20:03;4.45;;;1.30;;
79456;SDS011;69494;43.654;3.884;2024-03-06T05:22:29;3.50;;;1.17;;
79456;SDS011;69494;43.654;3.884;2024-03-06T05:24:54;3.85;;;1.25;;
79456;SDS011;69494;43.654;3.884;2024-03-06T05:27:20;3.50;;;0.98;;
79456;SDS011;69494;43.654;3.884;2024-03-06T05:29:46;2.45;;;0.95;;
79456;SDS011;69494;43.654;3.884;2024-03-06T05:32:11;2.35;;;0.90;;
79456;SDS011;69494;43.654;3.884;2024-03-06T05:34:37;2.72;;;0.88;;
79456;SDS011;69494;43.654;3.884;2024-03-06T05:37:02;2.58;;;1.05;;
79456;SDS011;69494;43.654;3.884;2024-03-06T05:39:31;3.95;;;0.98;;
79456;SDS011;69494;43.654;3.884;2024-03-06T05:42:00;1.45;;;0.80;;
79456;SDS011;69494;43.654;3.884;2024-03-06T05:44:27;2.63;;;0.40;;
79456;SDS011;69494;43.654;3.884;2024-03-06T05:46:53;5.25;;;1.20;;
79456;SDS011;69494;43.654;3.884;2024-03-06T05:49:18;4.28;;;1.02;;
79456;SDS011;69494;43.654;3.884;2024-03-06T05:51:43;3.50;;;0.70;;
79456;SDS011;69494;43.654;3.884;2024-03-06T05:54:10;2.75;;;1.45;;
79456;SDS011;69494;43.654;3.884;2024-03-06T05:56:35;4.35;;;1.85;;
79456;SDS011;69494;43.654;3.884;2024-03-06T05:59:00;4.07;;;1.38;;
79456;SDS011;69494;43.654;3.884;2024-03-06T06:01:29;12.98;;;3.78;;
79456;SDS011;69494;43.654;3.884;2024-03-06T06:03:55;9.48;;;3.75;;
79456;SDS011;69494;43.654;3.884;2024-03-06T06:06:20;9.90;;;3.40;;
79456;SDS011;69494;43.654;3.884;2024-03-06T06:08:46;7.93;;;3.13;;
79456;SDS011;69494;43.654;3.884;2024-03-06T06:11:11;9.70;;;3.40;;
79456;SDS011;69494;43.654;3.884;2024-03-06T06:13:37;9.60;;;3.35;;
79456;SDS011;69494;43.654;3.884;2024-03-06T06:16:04;10.50;;;3.60;;
79456;SDS011;69494;43.654;3.884;2024-03-06T06:18:30;5.78;;;1.85;;
79456;SDS011;69494;43.654;3.884;2024-03-06T06:20:56;3.90;;;1.63;;
79456;SDS011;69494;43.654;3.884;2024-03-06T06:23:22;3.65;;;1.15;;
79456;SDS011;69494;43.654;3.884;2024-03-06T06:25:48;2.92;;;1.30;;
79456;SDS011;69494;43.654;3.884;2024-03-06T06:28:13;1.67;;;0.90;;
79456;SDS011;69494;43.654;3.884;2024-03-06T06:30:38;3.28;;;1.10;;
79456;SDS011;69494;43.654;3.884;2024-03-06T06:33:04;2.22;;;1.00;;
79456;SDS011;69494;43.654;3.884;2024-03-06T06:35:30;4.80;;;1.77;;
79456;SDS011;69494;43.654;3.884;2024-03-06T06:37:55;7.55;;;1.40;;
79456;SDS011;69494;43.654;3.884;2024-03-06T06:40:21;15.27;;;5.32;;
79456;SDS011;69494;43.654;3.884;2024-03-06T06:42:47;16.77;;;5.28;;
79456;SDS011;69494;43.654;3.884;2024-03-06T06:45:17;10.82;;;4.00;;
79456;SDS011;69494;43.654;3.884;2024-03-06T06:47:43;11.48;;;3.55;;
79456;SDS011;69494;43.654;3.884;2024-03-06T06:50:09;8.18;;;3.38;;
79456;SDS011;69494;43.654;3.884;2024-03-06T06:52:36;9.50;;;3.55;;
79456;SDS011;69494;43.654;3.884;2024-03-06T06:55:02;14.40;;;3.65;;
79456;SDS011;69494;43.654;3.884;2024-03-06T06:57:29;9.73;;;2.42;;
79456;SDS011;69494;43.654;3.884;2024-03-06T06:59:54;5.80;;;2.00;;
79456;SDS011;69494;43.654;3.884;2024-03-06T07:02:20;5.47;;;1.70;;
79456;SDS011;69494;43.654;3.884;2024-03-06T07:04:45;6.70;;;2.38;;
79456;SDS011;69494;43.654;3.884;2024-03-06T07:07:11;5.15;;;1.67;;
79456;SDS011;69494;43.654;3.884;2024-03-06T07:09:36;5.15;;;1.48;;
79456;SDS011;69494;43.654;3.884;2024-03-06T07:12:01;4.22;;;1.60;;
79456;SDS011;69494;43.654;3.884;2024-03-06T07:14:28;2.88;;;1.30;;
79456;SDS011;69494;43.654;3.884;2024-03-06T07:16:53;4.90;;;1.30;;
79456;SDS011;69494;43.654;3.884;2024-03-06T07:19:19;4.53;;;1.27;;
79456;SDS011;69494;43.654;3.884;2024-03-06T07:21:44;4.45;;;1.20;;
79456;SDS011;69494;43.654;3.884;2024-03-06T07:24:10;4.47;;;1.40;;
79456;SDS011;69494;43.654;3.884;2024-03-06T07:26:35;16.27;;;4.00;;
79456;SDS011;69494;43.654;3.884;2024-03-06T07:29:01;11.52;;;3.80;;
79456;SDS011;69494;43.654;3.884;2024-03-06T07:31:27;7.32;;;2.65;;
79456;SDS011;69494;43.654;3.884;2024-03-06T07:33:53;6.90;;;1.40;;
79456;SDS011;69494;43.654;3.884;2024-03-06T07:36:19;4.28;;;1.20;;
79456;SDS011;69494;43.654;3.884;2024-03-06T07:38:44;2.05;;;0.82;;
79456;SDS011;69494;43.654;3.884;2024-03-06T07:41:10;1.65;;;0.70;;
79456;SDS011;69494;43.654;3.884;2024-03-06T07:43:35;5.45;;;0.80;;
79456;SDS011;69494;43.654;3.884;2024-03-06T07:46:01;2.92;;;0.80;;
79456;SDS011;69494;43.654;3.884;2024-03-06T07:48:26;3.95;;;1.00;;
79456;SDS011;69494;43.654;3.884;2024-03-06T07:50:51;4.82;;;1.20;;
79456;SDS011;69494;43.654;3.884;2024-03-06T07:53:17;2.05;;;0.80;;
79456;SDS011;69494;43.654;3.884;2024-03-06T07:55:42;1.75;;;0.47;;
79456;SDS011;69494;43.654;3.884;2024-03-06T07:58:08;2.20;;;0.60;;
79456;SDS011;69494;43.654;3.884;2024-03-06T08:00:34;3.83;;;0.93;;
79456;SDS011;69494;43.654;3.884;2024-03-06T08:02:59;0.77;;;0.47;;
79456;SDS011;69494;43.654;3.884;2024-03-06T08:05:25;3.60;;;0.70;;
79456;SDS011;69494;43.654;3.884;2024-03-06T08:07:51;2.72;;;0.57;;
79456;SDS011;69494;43.654;3.884;2024-03-06T08:10:17;1.58;;;0.63;;
79456;SDS011;69494;43.654;3.884;2024-03-06T08:12:44;1.45;;;0.60;;
79456;SDS011;69494;43.654;3.884;2024-03-06T08:15:10;1.02;;;0.43;;
79456;SDS011;69494;43.654;3.884;2024-03-06T08:17:38;3.72;;;0.95;;
79456;SDS011;69494;43.654;3.884;2024-03-06T08:20:04;2.72;;;0.75;;
79456;SDS011;69494;43.654;3.884;2024-03-06T08:22:41;2.45;;;0.82;;
79456;SDS011;69494;43.654;3.884;2024-03-06T08:25:11;4.03;;;1.13;;
79456;SDS011;69494;43.654;3.884;2024-03-06T08:27:38;1.85;;;0.80;;
79456;SDS011;69494;43.654;3.884;2024-03-06T08:32:31;2.95;;;0.70;;
79456;SDS011;69494;43.654;3.884;2024-03-06T08:35:00;1.40;;;0.63;;
79456;SDS011;69494;43.654;3.884;2024-03-06T08:37:25;1.90;;;0.55;;
79456;SDS011;69494;43.654;3.884;2024-03-06T08:39:50;2.03;;;0.85;;
79456;SDS011;69494;43.654;3.884;2024-03-06T08:42:16;2.70;;;0.63;;
79456;SDS011;69494;43.654;3.884;2024-03-06T08:47:08;0.43;;;0.40;;
79456;SDS011;69494;43.654;3.884;2024-03-06T08:49:34;4.82;;;0.75;;
79456;SDS011;69494;43.654;3.884;2024-03-06T08:51:59;0.52;;;0.20;;
79456;SDS011;69494;43.654;3.884;2024-03-06T08:54:24;0.60;;;0.30;;
79456;SDS011;69494;43.654;3.884;2024-03-06T08:56:50;0.65;;;0.30;;
79456;SDS011;69494;43.654;3.884;2024-03-06T08:59:18;4.65;;;0.40;;
79456;SDS011;69494;43.654;3.884;2024-03-06T09:01:43;2.13;;;0.38;;
79456;SDS011;69494;43.654;3.884;2024-03-06T09:04:09;1.40;;;0.40;;
79456;SDS011;69494;43.654;3.884;2024-03-06T09:06:34;1.38;;;0.45;;
79456;SDS011;69494;43.654;3.884;2024-03-06T09:09:00;2.50;;;0.98;;
79456;SDS011;69494;43.654;3.884;2024-03-06T09:11:25;2.78;;;0.60;;
79456;SDS011;69494;43.654;3.884;2024-03-06T09:13:50;3.15;;;0.65;;
79456;SDS011;69494;43.654;3.884;2024-03-06T09:16:15;1.02;;;0.40;;
79456;SDS011;69494;43.654;3.884;2024-03-06T09:18:43;2.25;;;0.80;;
79456;SDS011;69494;43.654;3.884;2024-03-06T09:21:08;2.95;;;0.90;;
79456;SDS011;69494;43.654;3.884;2024-03-06T09:23:33;5.72;;;2.95;;
79456;SDS011;69494;43.654;3.884;2024-03-06T09:25:59;19.05;;;1.75;;
79456;SDS011;69494;43.654;3.884;2024-03-06T09:28:24;15.70;;;1.80;;
79456;SDS011;69494;43.654;3.884;2024-03-06T09:30:50;2.80;;;0.57;;
79456;SDS011;69494;43.654;3.884;2024-03-06T09:33:15;7.40;;;0.75;;
79456;SDS011;69494;43.654;3.884;2024-03-06T09:35:40;1.52;;;0.50;;
79456;SDS011;69494;43.654;3.884;2024-03-06T09:38:10;1.85;;;0.40;;
79456;SDS011;69494;43.654;3.884;2024-03-06T09:40:40;3.17;;;0.98;;
79456;SDS011;69494;43.654;3.884;2024-03-06T09:43:06;1.33;;;0.40;;
79456;SDS011;69494;43.654;3.884;2024-03-06T09:45:32;2.10;;;0.55;;
79456;SDS011;69494;43.654;3.884;2024-03-06T09:47:58;0.77;;;0.50;;
79456;SDS011;69494;43.654;3.884;2024-03-06T09:50:24;1.20;;;0.20;;
79456;SDS011;69494;43.654;3.884;2024-03-06T09:52:51;2.63;;;0.32;;
79456;SDS011;69494;43.654;3.884;2024-03-06T09:55:20;3.03;;;0.80;;
79456;SDS011;69494;43.654;3.884;2024-03-06T09:57:46;5.45;;;2.15;;
79456;SDS011;69494;43.654;3.884;2024-03-06T10:00:12;6.82;;;1.38;;
79456;SDS011;69494;43.654;3.884;2024-03-06T10:02:40;4.40;;;1.60;;
79456;SDS011;69494;43.654;3.884;2024-03-06T10:05:23;6.10;;;2.03;;
79456;SDS011;69494;43.654;3.884;2024-03-06T10:07:52;2.50;;;0.82;;
79456;SDS011;69494;43.654;3.884;2024-03-06T10:10:21;2.88;;;1.30;;
79456;SDS011;69494;43.654;3.884;2024-03-06T10:12:49;4.20;;;1.45;;
79456;SDS011;69494;43.654;3.884;2024-03-06T10:15:14;5.03;;;1.58;;
79456;SDS011;69494;43.654;3.884;2024-03-06T12:38:28;0.52;;;0.20;;
79456;SDS011;69494;43.654;3.884;2024-03-06T12:40:57;0.93;;;0.50;;
79456;SDS011;69494;43.654;3.884;2024-03-06T12:43:23;0.77;;;0.40;;
79456;SDS011;69494;43.654;3.884;2024-03-06T12:45:49;1.52;;;0.40;;
79456;SDS011;69494;43.654;3.884;2024-03-06T12:48:14;1.23;;;0.50;;
79456;SDS011;69494;43.654;3.884;2024-03-06T12:50:40;4.72;;;1.88;;
79456;SDS011;69494;43.654;3.884;2024-03-06T12:55:32;0.97;;;0.20;;
79456;SDS011;69494;43.654;3.884;2024-03-06T12:57:58;7.05;;;2.80;;
79456;SDS011;69494;43.654;3.884;2024-03-06T13:00:23;1.33;;;0.47;;
79456;SDS011;69494;43.654;3.884;2024-03-06T13:02:49;0.88;;;0.32;;
79456;SDS011;69494;43.654;3.884;2024-03-06T13:05:17;1.50;;;0.30;;
79456;SDS011;69494;43.654;3.884;2024-03-06T13:07:44;2.10;;;0.52;;
79456;SDS011;69494;43.654;3.884;2024-03-06T13:10:10;0.50;;;0.20;;
79456;SDS011;69494;43.654;3.884;2024-03-06T13:12:39;1.95;;;0.30;;
79456;SDS011;69494;43.654;3.884;2024-03-06T13:15:05;0.38;;;0.20;;
79456;SDS011;69494;43.654;3.884;2024-03-06T13:17:32;0.22;;;0.10;;
79456;SDS011;69494;43.654;3.884;2024-03-06T13:19:58;5.53;;;1.05;;
79456;SDS011;69494;43.654;3.884;2024-03-06T13:22:23;3.78;;;0.98;;
79456;SDS011;69494;43.654;3.884;2024-03-06T13:24:48;8.02;;;2.05;;
79456;SDS011;69494;43.654;3.884;2024-03-06T13:27:14;3.42;;;0.90;;
79456;SDS011;69494;43.654;3.884;2024-03-06T13:29:39;4.57;;;0.80;;
79456;SDS011;69494;43.654;3.884;2024-03-06T13:32:06;0.35;;;0.25;;
79456;SDS011;69494;43.654;3.884;2024-03-06T13:34:32;1.23;;;0.50;;
79456;SDS011;69494;43.654;3.884;2024-03-06T13:36:58;4.63;;;1.90;;
79456;SDS011;69494;43.654;3.884;2024-03-06T13:39:24;3.38;;;0.90;;
79456;SDS011;69494;43.654;3.884;2024-03-06T13:41:50;3.78;;;1.05;;
79456;SDS011;69494;43.654;3.884;2024-03-06T13:44:15;1.70;;;0.45;;
79456;SDS011;69494;43.654;3.884;2024-03-06T13:46:41;4.53;;;1.30;;
79456;SDS011;69494;43.654;3.884;2024-03-06T13:49:06;2.80;;;1.00;;
79456;SDS011;69494;43.654;3.884;2024-03-06T13:51:32;1.35;;;0.50;;
79456;SDS011;69494;43.654;3.884;2024-03-06T13:53:57;1.17;;;0.50;;
79456;SDS011;69494;43.654;3.884;2024-03-06T13:56:22;0.57;;;0.20;;
79456;SDS011;69494;43.654;3.884;2024-03-06T13:58:48;0.82;;;0.20;;
79456;SDS011;69494;43.654;3.884;2024-03-06T14:01:13;0.15;;;0.00;;
79456;SDS011;69494;43.654;3.884;2024-03-06T14:03:38;0.10;;;0.00;;
79456;SDS011;69494;43.654;3.884;2024-03-06T14:06:04;0.32;;;0.08;;
79456;SDS011;69494;43.654;3.884;2024-03-06T14:08:32;2.13;;;0.45;;
79456;SDS011;69494;43.654;3.884;2024-03-06T14:10:57;2.50;;;0.63;;
79456;SDS011;69494;43.654;3.884;2024-03-06T14:13:23;7.35;;;1.27;;
79456;SDS011;69494;43.654;3.884;2024-03-06T14:15:48;1.55;;;0.32;;
79456;SDS011;69494;43.654;3.884;2024-03-06T14:18:14;0.45;;;0.17;;
79456;SDS011;69494;43.654;3.884;2024-03-06T14:20:40;1.80;;;0.60;;
79456;SDS011;69494;43.654;3.884;2024-03-06T14:23:05;1.08;;;0.30;;
79456;SDS011;69494;43.654;3.884;2024-03-06T14:25:30;3.80;;;0.25;;
79456;SDS011;69494;43.654;3.884;2024-03-06T14:28:00;0.30;;;0.10;;
79456;SDS011;69494;43.654;3.884;2024-03-06T14:30:25;0.70;;;0.30;;
79456;SDS011;69494;43.654;3.884;2024-03-06T14:32:51;2.00;;;0.73;;
79456;SDS011;69494;43.654;3.884;2024-03-06T14:35:16;2.55;;;0.75;;
79456;SDS011;69494;43.654;3.884;2024-03-06T14:37:41;1.20;;;0.52;;
79456;SDS011;69494;43.654;3.884;2024-03-06T14:40:08;1.33;;;0.50;;
79456;SDS011;69494;43.654;3.884;2024-03-06T14:42:34;0.82;;;0.28;;
79456;SDS011;69494;43.654;3.884;2024-03-06T14:45:00;2.17;;;0.65;;
79456;SDS011;69494;43.654;3.884;2024-03-06T14:47:25;3.70;;;0.88;;
79456;SDS011;69494;43.654;3.884;2024-03-06T14:49:51;4.15;;;1.00;;
79456;SDS011;69494;43.654;3.884;2024-03-06T14:52:16;5.68;;;0.80;;
79456;SDS011;69494;43.654;3.884;2024-03-06T14:54:42;1.95;;;0.80;;
79456;SDS011;69494;43.654;3.884;2024-03-06T14:57:08;0.95;;;0.40;;
79456;SDS011;69494;43.654;3.884;2024-03-06T14:59:33;1.08;;;0.50;;
79456;SDS011;69494;43.654;3.884;2024-03-06T15:01:59;1.10;;;0.45;;
79456;SDS011;69494;43.654;3.884;2024-03-06T15:04:25;1.50;;;0.45;;
79456;SDS011;69494;43.654;3.884;2024-03-06T15:06:50;1.45;;;0.45;;
79456;SDS011;69494;43.654;3.884;2024-03-06T15:09:16;0.57;;;0.40;;
79456;SDS011;69494;43.654;3.884;2024-03-06T15:11:47;1.27;;;0.35;;
79456;SDS011;69494;43.654;3.884;2024-03-06T15:14:16;4.18;;;0.80;;
79456;SDS011;69494;43.654;3.884;2024-03-06T15:16:42;1.60;;;0.20;;
79456;SDS011;69494;43.654;3.884;2024-03-06T15:19:07;1.40;;;0.38;;
79456;SDS011;69494;43.654;3.884;2024-03-06T15:21:34;1.00;;;0.57;;
79456;SDS011;69494;43.654;3.884;2024-03-06T15:23:59;1.42;;;0.40;;
79456;SDS011;69494;43.654;3.884;2024-03-06T15:26:25;0.30;;;0.30;;
79456;SDS011;69494;43.654;3.884;2024-03-06T15:28:50;1.00;;;0.35;;
79456;SDS011;69494;43.654;3.884;2024-03-06T15:31:16;0.77;;;0.20;;
79456;SDS011;69494;43.654;3.884;2024-03-06T15:33:41;0.85;;;0.30;;
79456;SDS011;69494;43.654;3.884;2024-03-06T15:36:08;15.60;;;4.10;;
79456;SDS011;69494;43.654;3.884;2024-03-06T15:38:34;10.73;;;3.03;;
79456;SDS011;69494;43.654;3.884;2024-03-06T15:41:00;2.78;;;1.00;;
79456;SDS011;69494;43.654;3.884;2024-03-06T15:43:25;0.57;;;0.20;;
79456;SDS011;69494;43.654;3.884;2024-03-06T15:45:51;1.20;;;0.38;;
79456;SDS011;69494;43.654;3.884;2024-03-06T15:48:16;0.95;;;0.30;;
79456;SDS011;69494;43.654;3.884;2024-03-06T15:50:42;2.17;;;0.55;;
79456;SDS011;69494;43.654;3.884;2024-03-06T15:53:08;0.90;;;0.40;;
79456;SDS011;69494;43.654;3.884;2024-03-06T15:55:34;0.13;;;0.00;;
79456;SDS011;69494;43.654;3.884;2024-03-06T15:58:00;1.00;;;0.30;;
79456;SDS011;69494;43.654;3.884;2024-03-06T16:00:27;0.65;;;0.40;;
79456;SDS011;69494;43.654;3.884;2024-03-06T16:02:52;0.98;;;0.47;;
79456;SDS011;69494;43.654;3.884;2024-03-06T16:05:18;1.08;;;0.50;;
79456;SDS011;69494;43.654;3.884;2024-03-06T16:07:43;1.45;;;0.60;;
79456;SDS011;69494;43.654;3.884;2024-03-06T16:10:08;1.00;;;0.38;;
79456;SDS011;69494;43.654;3.884;2024-03-06T16:12:34;1.33;;;0.40;;
79456;SDS011;69494;43.654;3.884;2024-03-06T16:14:59;0.65;;;0.40;;
79456;SDS011;69494;43.654;3.884;2024-03-06T16:17:25;1.13;;;0.57;;
79456;SDS011;69494;43.654;3.884;2024-03-06T16:19:50;1.55;;;0.60;;
79456;SDS011;69494;43.654;3.884;2024-03-06T16:22:16;6.88;;;1.42;;
79456;SDS011;69494;43.654;3.884;2024-03-06T16:24:41;1.27;;;0.50;;
79456;SDS011;69494;43.654;3.884;2024-03-06T16:27:07;0.68;;;0.40;;
79456;SDS011;69494;43.654;3.884;2024-03-06T16:29:34;1.33;;;0.50;;
79456;SDS011;69494;43.654;3.884;2024-03-06T16:31:59;1.20;;;0.52;;
79456;SDS011;69494;43.654;3.884;2024-03-06T16:34:27;2.00;;;0.65;;
79456;SDS011;69494;43.654;3.884;2024-03-06T16:36:53;1.45;;;0.47;;
79456;SDS011;69494;43.654;3.884;2024-03-06T16:39:19;0.55;;;0.40;;
79456;SDS011;69494;43.654;3.884;2024-03-06T16:41:44;1.73;;;0.50;;
79456;SDS011;69494;43.654;3.884;2024-03-06T16:44:10;1.23;;;0.60;;
79456;SDS011;69494;43.654;3.884;2024-03-06T16:46:36;1.88;;;0.63;;
79456;SDS011;69494;43.654;3.884;2024-03-06T16:49:02;2.33;;;0.90;;
79456;SDS011;69494;43.654;3.884;2024-03-06T16:51:27;5.15;;;1.38;;
79456;SDS011;69494;43.654;3.884;2024-03-06T16:53:53;12.40;;;3.03;;
79456;SDS011;69494;43.654;3.884;2024-03-06T16:56:18;10.20;;;2.33;;
79456;SDS011;69494;43.654;3.884;2024-03-06T16:58:44;5.53;;;1.23;;
79456;SDS011;69494;43.654;3.884;2024-03-06T17:01:09;7.15;;;2.03;;
79456;SDS011;69494;43.654;3.884;2024-03-06T17:03:35;12.48;;;3.35;;
79456;SDS011;69494;43.654;3.884;2024-03-06T17:06:00;11.35;;;3.88;;
79456;SDS011;69494;43.654;3.884;2024-03-06T17:08:26;9.90;;;2.75;;
79456;SDS011;69494;43.654;3.884;2024-03-06T17:10:51;6.47;;;2.92;;
79456;SDS011;69494;43.654;3.884;2024-03-06T17:13:16;8.70;;;3.08;;